createdAt,value
2023-07-24T00:00:23.996Z,18.59
2023-07-24T00:05:51.214Z,18.57
2023-07-24T00:10:58.512Z,18.57
2023-07-24T00:16:12.208Z,18.58
2023-07-24T00:21:19.805Z,18.59
2023-07-24T00:26:27.589Z,18.62
2023-07-24T00:31:35.111Z,18.64
2023-07-24T00:36:43.042Z,18.63
2023-07-24T00:41:50.377Z,18.61
2023-07-24T00:46:57.857Z,18.53
2023-07-24T00:52:05.439Z,18.51
2023-07-24T00:57:13.120Z,18.50
2023-07-24T01:02:20.326Z,18.49
2023-07-24T01:07:27.592Z,18.50
2023-07-24T01:12:38.112Z,18.54
2023-07-24T01:17:51.301Z,18.54
2023-07-24T01:23:33.699Z,18.54
2023-07-24T01:28:42.100Z,18.57
2023-07-24T01:33:49.687Z,18.61
2023-07-24T01:38:57.583Z,18.63
2023-07-24T01:44:04.866Z,18.60
2023-07-24T01:49:12.567Z,18.59
2023-07-24T01:54:21.522Z,18.60
2023-07-24T01:59:28.837Z,18.61
2023-07-24T02:04:36.272Z,18.68
2023-07-24T02:09:43.776Z,18.79
2023-07-24T02:14:52.898Z,18.90
2023-07-24T02:20:00.708Z,18.97
2023-07-24T02:25:10.319Z,19.02
2023-07-24T02:30:17.942Z,19.05
2023-07-24T02:35:25.801Z,19.10
2023-07-24T02:40:34.128Z,19.03
2023-07-24T02:45:42.052Z,19.02
2023-07-24T02:50:52.316Z,19.03
2023-07-24T02:55:59.709Z,18.92
2023-07-24T03:01:10.454Z,18.86
2023-07-24T03:06:18.014Z,18.89
2023-07-24T03:11:25.793Z,18.91
2023-07-24T03:16:33.423Z,18.81
2023-07-24T03:21:41.835Z,18.83
2023-07-24T03:26:49.286Z,18.89
2023-07-24T03:31:57.015Z,18.86
2023-07-24T03:37:04.981Z,18.79
2023-07-24T03:42:14.532Z,18.80
2023-07-24T03:47:22.081Z,18.81
2023-07-24T03:52:29.786Z,18.72
2023-07-24T03:57:37.360Z,18.73
2023-07-24T04:02:45.000Z,18.81
2023-07-24T04:07:52.584Z,18.91
2023-07-24T04:15:43.247Z,18.96
2023-07-24T04:20:50.678Z,19.02
2023-07-24T04:25:58.272Z,19.07
2023-07-24T04:31:05.776Z,19.06
2023-07-24T04:36:14.094Z,19.00
2023-07-24T04:41:22.920Z,18.95
2023-07-24T04:46:30.847Z,19.01
2023-07-24T04:51:38.848Z,19.15
2023-07-24T04:56:46.413Z,19.30
2023-07-24T05:01:54.223Z,19.48
2023-07-24T05:07:02.092Z,19.65
2023-07-24T05:12:11.472Z,19.84
2023-07-24T05:17:19.189Z,20.04
2023-07-24T05:22:26.702Z,20.24
2023-07-24T05:27:34.384Z,20.48
2023-07-24T05:38:21.689Z,20.96
2023-07-24T05:43:31.037Z,21.16
2023-07-24T05:48:38.576Z,21.39
2023-07-24T05:53:46.833Z,21.63
2023-07-24T05:58:54.432Z,21.87
2023-07-24T06:04:01.811Z,22.10
2023-07-24T06:09:09.757Z,22.36
2023-07-24T06:14:17.594Z,22.65
2023-07-24T06:19:25.592Z,22.90
2023-07-24T06:24:33.878Z,23.12
2023-07-24T06:29:42.183Z,23.27
2023-07-24T06:34:50.175Z,23.39
2023-07-24T06:39:57.856Z,23.56
2023-07-24T06:45:08.357Z,23.76
2023-07-24T06:50:16.597Z,23.96
2023-07-24T06:55:24.138Z,24.10
2023-07-24T07:00:32.228Z,24.28
2023-07-24T07:05:39.573Z,24.44
2023-07-24T07:10:46.981Z,24.64
2023-07-24T07:15:54.667Z,24.77
2023-07-24T07:21:03.252Z,24.84
2023-07-24T07:26:10.820Z,24.89
2023-07-24T07:31:19.144Z,24.98
2023-07-24T07:36:27.190Z,25.04
2023-07-24T07:41:34.805Z,25.09
2023-07-24T07:46:42.108Z,25.14
2023-07-24T07:51:50.034Z,25.22
2023-07-24T07:57:01.047Z,25.40
2023-07-24T08:02:09.430Z,25.64
2023-07-24T08:07:16.891Z,25.84
2023-07-24T08:12:24.807Z,25.97
2023-07-24T08:17:32.416Z,26.15
2023-07-24T08:22:40.215Z,26.34
2023-07-24T08:28:03.646Z,26.42
2023-07-24T08:33:14.299Z,26.59
2023-07-24T08:38:21.711Z,26.85
2023-07-24T08:43:29.318Z,27.07
2023-07-24T08:48:38.503Z,27.34
2023-07-24T08:53:48.610Z,27.58
2023-07-24T08:58:55.910Z,27.80
2023-07-24T09:04:03.661Z,27.95
2023-07-24T09:09:18.811Z,28.07
2023-07-24T09:14:29.755Z,28.22
2023-07-24T09:19:40.229Z,28.37
2023-07-24T09:24:59.238Z,28.53
2023-07-24T09:30:16.275Z,28.64
2023-07-24T09:35:28.455Z,28.56
2023-07-24T09:40:47.490Z,28.37
2023-07-24T09:45:57.042Z,28.21
2023-07-24T09:51:04.677Z,28.24
2023-07-24T09:56:13.765Z,28.36
2023-07-24T10:01:21.509Z,28.42
2023-07-24T10:06:31.559Z,28.40
2023-07-24T10:11:39.322Z,28.40
2023-07-24T10:16:47.621Z,28.47
2023-07-24T10:21:55.852Z,28.60
2023-07-24T10:27:05.142Z,28.64
2023-07-24T10:32:22.475Z,28.51
2023-07-24T10:37:40.083Z,28.35
2023-07-24T10:42:48.661Z,28.30
2023-07-24T10:47:56.452Z,28.40
2023-07-24T10:53:05.816Z,28.48
2023-07-24T10:58:14.582Z,28.44
2023-07-24T11:03:22.142Z,28.34
2023-07-24T11:08:29.702Z,28.21
2023-07-24T11:13:37.405Z,28.12
2023-07-24T11:18:55.128Z,28.06
2023-07-24T11:24:10.799Z,28.03
2023-07-24T11:29:19.144Z,27.99
2023-07-24T11:34:27.382Z,27.97
2023-07-24T11:39:35.057Z,27.87
2023-07-24T11:44:42.661Z,27.80
2023-07-24T11:50:00.674Z,27.81
2023-07-24T11:55:09.887Z,27.87
2023-07-24T12:00:24.997Z,27.88
2023-07-24T12:05:32.408Z,27.95
2023-07-24T12:10:41.989Z,28.06
2023-07-24T12:15:49.553Z,28.23
2023-07-24T12:20:57.559Z,28.34
2023-07-24T12:26:05.150Z,28.43
2023-07-24T12:31:12.868Z,28.47
2023-07-24T12:36:20.256Z,28.39
2023-07-24T12:41:28.587Z,28.41
2023-07-24T12:46:36.402Z,28.42
2023-07-24T12:51:43.748Z,28.37
2023-07-24T12:56:51.104Z,28.29
2023-07-24T13:01:58.700Z,28.36
2023-07-24T13:07:06.127Z,28.45
2023-07-24T13:12:15.126Z,28.44
2023-07-24T13:17:22.773Z,28.45
2023-07-24T13:22:30.077Z,28.51
2023-07-24T13:27:37.760Z,28.52
2023-07-24T13:38:26.002Z,28.72
2023-07-24T13:43:34.379Z,28.79
2023-07-24T13:48:42.262Z,28.88
2023-07-24T13:53:53.243Z,28.95
2023-07-24T13:59:01.426Z,29.00
2023-07-24T14:04:09.210Z,29.04
2023-07-24T14:09:16.989Z,29.00
2023-07-24T14:14:26.110Z,28.97
2023-07-24T14:19:33.652Z,28.94
2023-07-24T14:24:41.578Z,28.96
2023-07-24T14:29:48.814Z,29.00
2023-07-24T14:38:59.195Z,29.21
2023-07-24T14:44:07.414Z,29.32
2023-07-24T14:49:15.132Z,29.42
2023-07-24T14:54:23.019Z,29.44
2023-07-24T14:59:30.839Z,29.44
2023-07-24T15:04:38.685Z,29.42
2023-07-24T15:09:46.623Z,29.38
2023-07-24T15:14:54.172Z,29.35
2023-07-24T15:20:01.525Z,29.31
2023-07-24T15:25:11.558Z,29.26
2023-07-24T15:30:19.498Z,29.20
2023-07-24T15:35:26.978Z,29.16
2023-07-24T15:40:35.727Z,29.14
2023-07-24T15:45:43.639Z,29.13
2023-07-24T15:50:51.117Z,29.13
2023-07-24T15:55:58.384Z,29.06
2023-07-24T16:01:06.110Z,28.95
2023-07-24T16:06:14.409Z,28.85
2023-07-24T16:11:22.269Z,28.78
2023-07-24T16:16:30.107Z,28.74
2023-07-24T16:21:39.754Z,28.72
2023-07-24T16:26:48.013Z,28.62
2023-07-24T16:37:08.221Z,28.48
2023-07-24T16:42:16.032Z,28.37
2023-07-24T16:47:25.028Z,28.29
2023-07-24T16:52:32.608Z,28.18
2023-07-24T16:57:40.152Z,28.11
2023-07-24T17:02:48.048Z,28.00
2023-07-24T17:07:55.990Z,27.92
2023-07-24T17:13:03.350Z,27.76
2023-07-24T17:18:10.924Z,27.20
2023-07-24T17:23:19.753Z,26.55
2023-07-24T17:28:27.304Z,25.07
2023-07-24T17:33:35.002Z,23.66
2023-07-24T17:38:42.253Z,22.43
2023-07-24T17:43:49.579Z,21.11
2023-07-24T17:48:57.220Z,20.61
2023-07-24T17:54:05.167Z,20.27
2023-07-24T17:59:13.144Z,19.74
2023-07-24T18:04:21.892Z,19.38
2023-07-24T18:09:29.399Z,19.19
2023-07-24T18:14:40.725Z,19.14
2023-07-24T18:19:50.149Z,19.16
2023-07-24T18:24:57.871Z,19.28
2023-07-24T18:30:06.382Z,19.40
2023-07-24T18:35:14.852Z,19.35
2023-07-24T18:40:22.625Z,19.24
2023-07-24T18:45:30.765Z,19.11
2023-07-24T18:50:38.298Z,19.02
2023-07-24T18:55:45.888Z,18.96
2023-07-24T19:00:53.448Z,18.90
2023-07-24T19:06:02.336Z,18.87
2023-07-24T19:11:10.043Z,18.90
2023-07-24T19:16:17.459Z,18.97
2023-07-24T19:21:24.850Z,19.08
2023-07-24T19:26:32.499Z,19.25
2023-07-24T19:31:40.136Z,19.42
2023-07-24T19:36:47.936Z,19.52
2023-07-24T19:41:55.383Z,19.57
2023-07-24T19:47:02.995Z,19.64
2023-07-24T19:52:11.525Z,19.72
2023-07-24T19:57:19.037Z,19.77
2023-07-24T20:02:26.892Z,19.74
2023-07-24T20:07:34.440Z,19.68
2023-07-24T20:12:42.541Z,19.72
2023-07-24T20:17:49.822Z,19.67
2023-07-24T20:22:58.803Z,19.58
2023-07-24T20:28:06.823Z,19.65
2023-07-24T20:33:14.871Z,19.73
2023-07-24T20:38:26.840Z,19.79
2023-07-24T20:43:34.666Z,19.80
2023-07-24T20:48:42.523Z,19.80
2023-07-24T20:53:50.853Z,19.82
2023-07-24T20:58:59.260Z,19.84
2023-07-24T21:04:08.576Z,19.84
2023-07-24T21:09:17.413Z,19.81
2023-07-24T21:14:25.352Z,19.69
2023-07-24T21:19:32.828Z,19.45
2023-07-24T21:24:40.757Z,19.25
2023-07-24T21:29:48.618Z,19.17
2023-07-24T21:34:55.975Z,19.15
2023-07-24T21:40:03.611Z,19.08
2023-07-24T21:45:12.300Z,19.01
2023-07-24T21:50:20.497Z,19.00
2023-07-24T21:55:28.779Z,18.95
2023-07-24T22:00:36.508Z,18.87
2023-07-24T22:05:44.146Z,18.75
2023-07-24T22:10:52.060Z,18.71
2023-07-24T22:15:59.485Z,18.75
2023-07-24T22:21:07.290Z,18.72
2023-07-24T22:26:14.987Z,18.70
2023-07-24T22:31:23.535Z,18.70
2023-07-24T22:36:33.309Z,18.64
2023-07-24T22:41:42.562Z,18.56
2023-07-24T22:46:50.159Z,18.52
2023-07-24T22:51:58.214Z,18.55
2023-07-24T22:57:08.452Z,18.60
2023-07-24T23:02:16.117Z,18.56
2023-07-24T23:07:25.099Z,18.50
2023-07-24T23:12:32.415Z,18.47
2023-07-24T23:17:39.617Z,18.42
2023-07-24T23:22:47.096Z,18.43
2023-07-24T23:27:54.360Z,18.53
2023-07-24T23:38:39.040Z,18.68
2023-07-24T23:43:46.779Z,18.69
2023-07-24T23:48:54.189Z,18.65
2023-07-24T23:54:01.693Z,18.64
2023-07-24T23:59:09.461Z,18.57
